Time;durP1;ratioP1;P1;durP2;ratioP2;P2;SDS_P1;SDS_P2;PMS_P1;PMS_P2;Temp;Humidity;BMP_temperature;BMP_pressure;BME280_temperature;BME280_humidity;BME280_pressure;Samples;Min_cycle;Max_cycle;Signal;HPM_P1;HPM_P2
2022/11/30 00:00:20;;;;;;;29.10;21.80;;;;;;;;;;5017168;28;20632;-65
2022/11/30 00:02:45;;;;;;;30.07;22.57;;;;;;;;;;5020710;28;20200;-64
2022/11/30 00:05:11;;;;;;;31.07;21.77;;;;;;;;;;5015123;28;20926;-65
2022/11/30 00:07:37;;;;;;;32.10;23.50;;;;;;;;;;5013564;28;20738;-65
2022/11/30 00:10:03;;;;;;;30.77;21.73;;;;;;;;;;4996939;28;20234;-65
2022/11/30 00:12:28;;;;;;;31.87;23.30;;;;;;;;;;5015296;28;20215;-65
2022/11/30 00:14:53;;;;;;;27.03;22.13;;;;;;;;;;5015530;28;20442;-64
2022/11/30 00:17:19;;;;;;;32.93;22.47;;;;;;;;;;5017768;28;20235;-65
2022/11/30 00:19:44;;;;;;;31.80;23.47;;;;;;;;;;4998407;28;20185;-65
2022/11/30 00:22:09;;;;;;;33.10;23.93;;;;;;;;;;5019052;28;20191;-65
2022/11/30 00:24:34;;;;;;;27.63;22.23;;;;;;;;;;5017699;28;20698;-65
2022/11/30 00:27:00;;;;;;;32.27;23.27;;;;;;;;;;5017339;28;20207;-65
2022/11/30 00:29:25;;;;;;;30.53;22.87;;;;;;;;;;5017479;28;20267;-65
2022/11/30 00:31:50;;;;;;;32.97;23.00;;;;;;;;;;5017937;28;20608;-65
2022/11/30 00:34:15;;;;;;;30.30;23.00;;;;;;;;;;5020506;28;20263;-65
2022/11/30 00:36:41;;;;;;;30.20;23.90;;;;;;;;;;5021531;28;20659;-65
2022/11/30 00:39:06;;;;;;;32.00;22.13;;;;;;;;;;5001148;28;20178;-65
2022/11/30 00:41:31;;;;;;;32.47;23.07;;;;;;;;;;5021349;28;20180;-64
2022/11/30 00:43:56;;;;;;;33.07;23.00;;;;;;;;;;5021720;28;20180;-65
2022/11/30 00:46:22;;;;;;;35.83;24.53;;;;;;;;;;5021916;28;20701;-65
2022/11/30 00:48:47;;;;;;;31.20;23.20;;;;;;;;;;5021627;28;20187;-64
2022/11/30 00:51:13;;;;;;;32.30;22.87;;;;;;;;;;5018924;28;20235;-65
2022/11/30 00:53:38;;;;;;;29.90;21.87;;;;;;;;;;5021896;28;20204;-65
2022/11/30 00:56:04;;;;;;;33.53;22.30;;;;;;;;;;5020449;28;20177;-65
2022/11/30 00:58:29;;;;;;;33.07;24.17;;;;;;;;;;5020992;28;20212;-64
2022/11/30 01:00:55;;;;;;;32.07;22.20;;;;;;;;;;5020978;28;20169;-65
2022/11/30 01:03:20;;;;;;;34.47;23.13;;;;;;;;;;5020950;28;20268;-65
2022/11/30 01:05:45;;;;;;;30.23;22.40;;;;;;;;;;5016198;28;20189;-65
2022/11/30 01:08:11;;;;;;;33.83;23.80;;;;;;;;;;5011762;28;20287;-65
2022/11/30 01:10:37;;;;;;;30.83;22.47;;;;;;;;;;5011308;28;20184;-64
2022/11/30 01:13:03;;;;;;;32.10;22.83;;;;;;;;;;5013398;28;20236;-65
2022/11/30 01:15:29;;;;;;;29.50;22.00;;;;;;;;;;5014564;28;20880;-65
2022/11/30 01:17:54;;;;;;;29.20;21.97;;;;;;;;;;5016708;28;20257;-65
2022/11/30 01:20:20;;;;;;;30.80;21.47;;;;;;;;;;4998479;28;20267;-65
2022/11/30 01:22:45;;;;;;;30.60;23.70;;;;;;;;;;4997926;28;20654;-64
2022/11/30 01:25:10;;;;;;;31.33;22.87;;;;;;;;;;5016562;28;20700;-64
2022/11/30 01:27:35;;;;;;;28.03;21.10;;;;;;;;;;5014117;28;20223;-64
2022/11/30 01:30:01;;;;;;;28.27;21.33;;;;;;;;;;5016147;28;20531;-65
2022/11/30 01:32:26;;;;;;;28.10;21.13;;;;;;;;;;5013445;28;20197;-65
2022/11/30 01:34:52;;;;;;;29.13;21.37;;;;;;;;;;5018671;28;20221;-64
2022/11/30 01:37:17;;;;;;;26.60;21.20;;;;;;;;;;4998057;28;20202;-64
2022/11/30 01:39:42;;;;;;;30.23;21.53;;;;;;;;;;4997554;28;20235;-65
2022/11/30 01:42:13;;;;;;;29.97;20.13;;;;;;;;;;5017091;28;20188;-64
2022/11/30 01:44:46;;;;;;;28.70;20.50;;;;;;;;;;5016022;28;20192;-65
2022/11/30 01:47:12;;;;;;;27.50;19.93;;;;;;;;;;5015339;28;20455;-65
2022/11/30 01:49:47;;;;;;;31.30;22.30;;;;;;;;;;5017669;28;20442;-65
2022/11/30 01:52:15;;;;;;;28.40;19.87;;;;;;;;;;5000398;28;20808;-65
2022/11/30 01:54:43;;;;;;;27.87;20.87;;;;;;;;;;5019150;28;20441;-65
2022/11/30 01:57:12;;;;;;;27.20;19.83;;;;;;;;;;4998456;28;20456;-65
2022/11/30 01:59:37;;;;;;;28.20;21.07;;;;;;;;;;5018780;28;20803;-65
2022/11/30 02:02:03;;;;;;;27.17;19.67;;;;;;;;;;5015999;28;20441;-65
2022/11/30 02:04:30;;;;;;;25.00;19.63;;;;;;;;;;5021562;28;20687;-64
2022/11/30 02:06:58;;;;;;;28.27;20.73;;;;;;;;;;5019784;28;20285;-65
2022/11/30 02:09:24;;;;;;;27.60;20.97;;;;;;;;;;5019669;28;20419;-65
2022/11/30 02:11:50;;;;;;;26.83;19.60;;;;;;;;;;5016819;28;20431;-65
2022/11/30 02:14:15;;;;;;;25.33;19.73;;;;;;;;;;5000798;28;20973;-65
2022/11/30 02:16:46;;;;;;;25.57;19.73;;;;;;;;;;5002934;28;20213;-65
2022/11/30 02:19:14;;;;;;;28.00;20.03;;;;;;;;;;5017721;28;20193;-65
2022/11/30 02:21:57;;;;;;;28.40;20.33;;;;;;;;;;5004421;28;20492;-65
2022/11/30 02:24:40;;;;;;;24.90;19.80;;;;;;;;;;5022065;28;21181;-65
2022/11/30 02:27:13;;;;;;;29.90;20.93;;;;;;;;;;5021388;28;20452;-65
2022/11/30 02:29:38;;;;;;;25.90;19.53;;;;;;;;;;5003253;28;20435;-65
2022/11/30 02:32:09;;;;;;;24.67;18.87;;;;;;;;;;5018199;28;20430;-65
2022/11/30 02:34:35;;;;;;;26.87;20.13;;;;;;;;;;5020790;28;20340;-65
2022/11/30 02:37:02;;;;;;;30.67;21.23;;;;;;;;;;5005153;28;21078;-64
2022/11/30 02:39:27;;;;;;;29.60;21.70;;;;;;;;;;5022904;28;20485;-64
2022/11/30 02:41:52;;;;;;;26.17;20.00;;;;;;;;;;5022868;28;20440;-65
2022/11/30 02:44:19;;;;;;;25.77;19.13;;;;;;;;;;5024375;28;20517;-64
2022/11/30 02:46:51;;;;;;;25.57;18.87;;;;;;;;;;5024157;28;20212;-65
2022/11/30 02:49:28;;;;;;;28.37;21.00;;;;;;;;;;5024007;28;20909;-65
2022/11/30 02:51:55;;;;;;;28.20;20.63;;;;;;;;;;5022398;28;20419;-65
2022/11/30 02:54:20;;;;;;;26.30;19.10;;;;;;;;;;5009991;28;20426;-65
2022/11/30 02:56:45;;;;;;;28.03;19.77;;;;;;;;;;5022155;28;20423;-64
2022/11/30 02:59:11;;;;;;;29.23;20.93;;;;;;;;;;5023213;28;20184;-64
2022/11/30 03:01:37;;;;;;;27.23;20.27;;;;;;;;;;5023471;28;20204;-65
2022/11/30 03:04:02;;;;;;;29.50;19.53;;;;;;;;;;5007589;28;20718;-65
2022/11/30 03:06:27;;;;;;;23.73;18.03;;;;;;;;;;5020451;28;20593;-65
2022/11/30 03:08:53;;;;;;;28.07;19.53;;;;;;;;;;5005811;28;20180;-65
2022/11/30 03:11:18;;;;;;;27.40;19.07;;;;;;;;;;5014795;28;20177;-64
2022/11/30 03:13:43;;;;;;;28.70;19.97;;;;;;;;;;4997075;28;20250;-65
2022/11/30 03:16:11;;;;;;;27.77;19.80;;;;;;;;;;5015329;28;20190;-65
2022/11/30 03:18:39;;;;;;;25.73;18.57;;;;;;;;;;5017982;28;20195;-64
2022/11/30 03:21:08;;;;;;;27.63;18.93;;;;;;;;;;5013936;28;20427;-64
2022/11/30 03:23:34;;;;;;;26.20;18.90;;;;;;;;;;5018670;28;20423;-65
2022/11/30 03:26:00;;;;;;;24.47;17.67;;;;;;;;;;5020139;28;20439;-64
2022/11/30 03:28:25;;;;;;;25.83;19.53;;;;;;;;;;5016504;28;20454;-64
2022/11/30 03:30:50;;;;;;;24.57;18.17;;;;;;;;;;5017808;28;20264;-65
2022/11/30 03:33:16;;;;;;;27.33;19.60;;;;;;;;;;5020534;28;20200;-65
2022/11/30 03:35:42;;;;;;;27.50;20.40;;;;;;;;;;5015100;28;20188;-64
2022/11/30 03:38:07;;;;;;;24.60;18.07;;;;;;;;;;5020580;28;20444;-64
2022/11/30 03:40:32;;;;;;;26.40;18.93;;;;;;;;;;5002360;28;20232;-65
2022/11/30 03:42:58;;;;;;;22.83;16.80;;;;;;;;;;5018633;28;20188;-65
2022/11/30 03:45:23;;;;;;;23.80;17.37;;;;;;;;;;5018417;28;20179;-65
2022/11/30 03:47:48;;;;;;;21.50;16.73;;;;;;;;;;5020982;28;20205;-65
2022/11/30 03:50:13;;;;;;;23.80;17.40;;;;;;;;;;5001811;28;20185;-65
2022/11/30 03:52:39;;;;;;;21.23;16.93;;;;;;;;;;5018402;28;20196;-64
2022/11/30 03:55:04;;;;;;;22.33;17.43;;;;;;;;;;5018810;28;20180;-65
2022/11/30 03:57:30;;;;;;;20.33;15.50;;;;;;;;;;5018589;28;20208;-64
2022/11/30 03:59:55;;;;;;;19.37;16.17;;;;;;;;;;5016310;28;20187;-65
2022/11/30 04:02:20;;;;;;;22.60;16.90;;;;;;;;;;5019981;28;20697;-65
2022/11/30 04:04:45;;;;;;;19.07;16.07;;;;;;;;;;5019956;28;20188;-65
2022/11/30 04:07:11;;;;;;;19.83;15.27;;;;;;;;;;5019180;28;20581;-65
2022/11/30 04:09:36;;;;;;;20.63;16.00;;;;;;;;;;5016989;28;20192;-65
2022/11/30 04:12:01;;;;;;;20.87;16.43;;;;;;;;;;5018862;28;20654;-65
2022/11/30 04:14:27;;;;;;;20.50;16.07;;;;;;;;;;5017178;28;20189;-64
2022/11/30 04:16:52;;;;;;;18.20;15.50;;;;;;;;;;5003175;28;20805;-65
2022/11/30 04:19:17;;;;;;;18.17;14.60;;;;;;;;;;5017497;28;20172;-65
2022/11/30 04:21:43;;;;;;;18.60;15.70;;;;;;;;;;5017855;28;20736;-65
2022/11/30 04:24:08;;;;;;;17.97;14.10;;;;;;;;;;5050945;23;20231;-71
2022/11/30 04:26:33;;;;;;;18.23;14.33;;;;;;;;;;5004958;28;20262;-71
2022/11/30 04:28:58;;;;;;;19.07;14.27;;;;;;;;;;5016295;28;20212;-71
2022/11/30 04:31:27;;;;;;;16.63;13.70;;;;;;;;;;5015332;28;20204;-71
2022/11/30 04:33:53;;;;;;;18.67;14.73;;;;;;;;;;5019268;28;20212;-70
2022/11/30 04:36:19;;;;;;;19.50;15.20;;;;;;;;;;5005788;28;20427;-71
2022/11/30 04:38:44;;;;;;;18.50;15.10;;;;;;;;;;5004131;28;20972;-71
2022/11/30 04:41:09;;;;;;;20.17;15.70;;;;;;;;;;5019674;28;20412;-71
2022/11/30 04:43:35;;;;;;;20.37;15.63;;;;;;;;;;5002468;28;20911;-72
2022/11/30 04:46:00;;;;;;;20.07;14.60;;;;;;;;;;5019821;28;20181;-71
2022/11/30 04:48:25;;;;;;;18.73;14.50;;;;;;;;;;5019262;28;20608;-71
2022/11/30 04:50:51;;;;;;;17.17;14.00;;;;;;;;;;5001640;28;20670;-70
2022/11/30 04:53:16;;;;;;;17.47;14.17;;;;;;;;;;5007155;28;20291;-71
2022/11/30 04:55:41;;;;;;;21.30;15.30;;;;;;;;;;5005332;28;20566;-71
2022/11/30 04:58:06;;;;;;;16.67;13.80;;;;;;;;;;5018445;28;20774;-70
2022/11/30 05:00:34;;;;;;;18.00;14.10;;;;;;;;;;5020790;28;20196;-71
2022/11/30 05:03:00;;;;;;;16.63;13.00;;;;;;;;;;5013677;28;20204;-71
2022/11/30 05:05:25;;;;;;;19.23;14.80;;;;;;;;;;5018875;28;20435;-71
2022/11/30 05:07:55;;;;;;;17.30;13.93;;;;;;;;;;5000578;28;20237;-71
2022/11/30 05:10:21;;;;;;;19.10;14.40;;;;;;;;;;5016040;28;21395;-71
2022/11/30 05:12:46;;;;;;;19.90;14.77;;;;;;;;;;5015507;28;20502;-71
2022/11/30 05:15:11;;;;;;;20.63;15.20;;;;;;;;;;5014978;28;20188;-71
2022/11/30 05:17:36;;;;;;;16.10;13.50;;;;;;;;;;5013087;28;20184;-71
2022/11/30 05:20:02;;;;;;;17.10;13.80;;;;;;;;;;5013191;28;20751;-71
2022/11/30 05:22:27;;;;;;;15.70;13.00;;;;;;;;;;5012398;28;20199;-70
2022/11/30 05:24:53;;;;;;;20.10;14.37;;;;;;;;;;5000327;28;20699;-71
2022/11/30 05:27:18;;;;;;;15.90;13.20;;;;;;;;;;5014438;28;20737;-71
2022/11/30 05:29:43;;;;;;;17.93;14.43;;;;;;;;;;5016662;28;20205;-70
2022/11/30 05:32:08;;;;;;;16.37;12.90;;;;;;;;;;5017503;28;20238;-71
2022/11/30 05:34:34;;;;;;;20.60;14.80;;;;;;;;;;5015714;28;20177;-71
2022/11/30 05:36:59;;;;;;;18.33;14.80;;;;;;;;;;5013496;28;20557;-71
2022/11/30 05:39:24;;;;;;;15.90;13.20;;;;;;;;;;5003416;28;20200;-70
2022/11/30 05:41:50;;;;;;;17.07;13.70;;;;;;;;;;5015186;28;20184;-71
2022/11/30 05:44:15;;;;;;;15.67;12.83;;;;;;;;;;5001959;28;20176;-72
2022/11/30 05:46:40;;;;;;;16.40;12.87;;;;;;;;;;5019793;28;20566;-70
2022/11/30 05:49:06;;;;;;;18.30;14.40;;;;;;;;;;5018899;28;20247;-71
2022/11/30 05:51:31;;;;;;;18.67;13.67;;;;;;;;;;5020388;28;20182;-71
2022/11/30 05:53:57;;;;;;;18.80;14.17;;;;;;;;;;5001129;28;20933;-71
2022/11/30 05:56:22;;;;;;;17.20;13.60;;;;;;;;;;5014989;28;20191;-71
2022/11/30 05:58:47;;;;;;;19.30;14.53;;;;;;;;;;5014218;28;20304;-71
2022/11/30 06:01:18;;;;;;;18.40;14.13;;;;;;;;;;5016626;28;20184;-71
2022/11/30 06:03:44;;;;;;;19.00;15.00;;;;;;;;;;4999712;28;20681;-71
2022/11/30 06:06:09;;;;;;;21.30;15.10;;;;;;;;;;5019439;28;20443;-71
2022/11/30 06:08:34;;;;;;;19.37;14.67;;;;;;;;;;5017541;28;20196;-71
2022/11/30 06:11:00;;;;;;;21.40;16.10;;;;;;;;;;5014608;28;26052;-71
2022/11/30 06:13:25;;;;;;;20.03;15.33;;;;;;;;;;5017500;28;20259;-71
2022/11/30 06:15:50;;;;;;;19.93;14.80;;;;;;;;;;5004137;28;20208;-71
2022/11/30 06:18:16;;;;;;;20.13;15.23;;;;;;;;;;5016782;28;20177;-71
2022/11/30 06:20:41;;;;;;;20.80;15.33;;;;;;;;;;5000544;28;20184;-71
2022/11/30 06:23:06;;;;;;;20.03;15.67;;;;;;;;;;4999517;28;20622;-71
2022/11/30 06:25:32;;;;;;;18.30;14.27;;;;;;;;;;5018891;28;20266;-70
2022/11/30 06:27:57;;;;;;;20.33;16.03;;;;;;;;;;5018335;28;20212;-71
2022/11/30 06:30:22;;;;;;;21.43;15.93;;;;;;;;;;5015308;28;20251;-71
2022/11/30 06:32:48;;;;;;;20.90;16.50;;;;;;;;;;5003876;28;20240;-71
2022/11/30 06:35:14;;;;;;;21.77;16.40;;;;;;;;;;5012452;28;20656;-71
2022/11/30 06:37:39;;;;;;;20.90;16.17;;;;;;;;;;5013269;28;20442;-71
2022/11/30 06:40:05;;;;;;;19.33;15.80;;;;;;;;;;5014484;28;20200;-71
2022/11/30 06:42:31;;;;;;;20.00;16.03;;;;;;;;;;5021126;28;20322;-69
2022/11/30 06:44:56;;;;;;;19.07;15.60;;;;;;;;;;5021902;28;21061;-70
2022/11/30 06:47:22;;;;;;;20.60;16.13;;;;;;;;;;5023868;28;20185;-72
2022/11/30 06:49:49;;;;;;;20.00;14.87;;;;;;;;;;5022728;28;20198;-71
2022/11/30 06:52:15;;;;;;;22.13;16.50;;;;;;;;;;5022549;28;20242;-69
2022/11/30 06:54:40;;;;;;;20.37;15.17;;;;;;;;;;5006920;28;20459;-71
2022/11/30 06:57:05;;;;;;;20.47;15.97;;;;;;;;;;5018959;28;20181;-70
2022/11/30 06:59:31;;;;;;;18.70;15.17;;;;;;;;;;5021800;28;20204;-70
2022/11/30 07:01:56;;;;;;;18.83;14.83;;;;;;;;;;5015533;28;20272;-70
2022/11/30 07:04:21;;;;;;;21.30;15.97;;;;;;;;;;5018113;28;20184;-70
2022/11/30 07:06:46;;;;;;;20.83;15.97;;;;;;;;;;5015886;28;20185;-70
2022/11/30 07:09:12;;;;;;;19.67;16.10;;;;;;;;;;5019789;28;20279;-70
2022/11/30 07:11:38;;;;;;;24.00;17.20;;;;;;;;;;5017775;28;20187;-71
2022/11/30 07:14:03;;;;;;;18.90;15.30;;;;;;;;;;4999568;28;20212;-71
2022/11/30 07:16:28;;;;;;;24.53;17.70;;;;;;;;;;5023123;28;20182;-70
2022/11/30 07:18:53;;;;;;;23.73;17.23;;;;;;;;;;5005691;28;20205;-70
2022/11/30 07:21:19;;;;;;;22.30;16.77;;;;;;;;;;5003445;28;20183;-70
2022/11/30 07:26:28;;;;;;;23.30;16.67;;;;;;;;;;5021743;28;20200;-70
2022/11/30 07:28:53;;;;;;;25.83;18.20;;;;;;;;;;4998285;28;20451;-70
2022/11/30 07:31:29;;;;;;;25.70;16.80;;;;;;;;;;5004061;28;20181;-70
2022/11/30 07:33:55;;;;;;;25.03;17.33;;;;;;;;;;5001059;28;20687;-69
2022/11/30 07:36:21;;;;;;;26.43;19.33;;;;;;;;;;5019545;28;20431;-70
2022/11/30 07:38:47;;;;;;;29.03;18.57;;;;;;;;;;5015322;28;20451;-70
2022/11/30 07:41:12;;;;;;;25.20;18.43;;;;;;;;;;5017158;28;20424;-69
2022/11/30 07:43:38;;;;;;;26.80;18.50;;;;;;;;;;5016585;28;20211;-70
2022/11/30 07:46:03;;;;;;;25.03;19.10;;;;;;;;;;5001334;28;20196;-71
2022/11/30 07:48:29;;;;;;;30.73;20.67;;;;;;;;;;5016514;28;20655;-70
2022/11/30 07:51:00;;;;;;;29.73;21.50;;;;;;;;;;5018327;28;20563;-70
2022/11/30 07:53:28;;;;;;;28.73;20.30;;;;;;;;;;5019538;28;20283;-71
2022/11/30 07:55:53;;;;;;;31.60;20.50;;;;;;;;;;5019882;28;20936;-70
2022/11/30 07:58:18;;;;;;;31.50;21.90;;;;;;;;;;5018397;28;20423;-70
2022/11/30 08:00:43;;;;;;;30.83;21.30;;;;;;;;;;5017126;28;20357;-71
2022/11/30 08:03:09;;;;;;;40.77;26.27;;;;;;;;;;5018712;28;20196;-71
2022/11/30 08:05:34;;;;;;;47.20;28.73;;;;;;;;;;5019165;28;20180;-72
2022/11/30 08:07:59;;;;;;;46.20;29.53;;;;;;;;;;5018263;28;20748;-71
2022/11/30 08:10:25;;;;;;;47.60;29.63;;;;;;;;;;5012814;28;20200;-72
2022/11/30 08:12:50;;;;;;;50.90;30.67;;;;;;;;;;5019375;28;20683;-71
2022/11/30 08:15:16;;;;;;;50.27;30.00;;;;;;;;;;5013900;28;20185;-73
2022/11/30 08:17:41;;;;;;;49.20;28.40;;;;;;;;;;4999884;28;20319;-71
2022/11/30 08:20:08;;;;;;;49.73;29.50;;;;;;;;;;5019129;28;20225;-72
2022/11/30 08:22:34;;;;;;;48.17;29.00;;;;;;;;;;5020227;28;20427;-71
2022/11/30 08:24:59;;;;;;;53.23;31.00;;;;;;;;;;5019663;28;20537;-71
2022/11/30 08:27:25;;;;;;;45.73;27.30;;;;;;;;;;5018102;28;20561;-70
2022/11/30 08:29:50;;;;;;;49.67;30.43;;;;;;;;;;5019664;28;20691;-70
2022/11/30 08:32:15;;;;;;;51.13;29.80;;;;;;;;;;5018930;28;20187;-70
2022/11/30 08:34:43;;;;;;;49.80;30.50;;;;;;;;;;5018540;28;20644;-70
2022/11/30 08:37:08;;;;;;;49.00;30.00;;;;;;;;;;5019365;28;20214;-70
2022/11/30 08:39:34;;;;;;;46.43;28.77;;;;;;;;;;5019812;28;20475;-71
2022/11/30 08:42:00;;;;;;;47.27;28.77;;;;;;;;;;5002375;28;20199;-71
2022/11/30 08:44:25;;;;;;;46.53;28.30;;;;;;;;;;5017780;28;20223;-70
2022/11/30 08:46:51;;;;;;;49.77;29.23;;;;;;;;;;5004183;28;20223;-71
2022/11/30 08:49:16;;;;;;;42.30;28.40;;;;;;;;;;5020329;28;20200;-72
2022/11/30 08:51:41;;;;;;;43.63;27.37;;;;;;;;;;5015609;28;20204;-71
2022/11/30 08:54:06;;;;;;;47.47;27.27;;;;;;;;;;5004083;28;20639;-71
2022/11/30 08:56:32;;;;;;;43.57;26.13;;;;;;;;;;5018909;28;20267;-72
2022/11/30 08:58:57;;;;;;;41.40;27.50;;;;;;;;;;5005759;28;20732;-71
2022/11/30 09:01:23;;;;;;;39.00;25.20;;;;;;;;;;5018937;28;20276;-71
2022/11/30 09:03:51;;;;;;;45.33;27.50;;;;;;;;;;5003253;28;20207;-71
2022/11/30 09:06:17;;;;;;;50.70;29.53;;;;;;;;;;5020529;28;20423;-71
2022/11/30 09:08:43;;;;;;;45.27;29.87;;;;;;;;;;5021130;28;20443;-71
2022/11/30 09:11:18;;;;;;;50.77;29.20;;;;;;;;;;5015454;28;20459;-72
2022/11/30 09:13:46;;;;;;;52.03;30.00;;;;;;;;;;4994508;28;20493;-71
2022/11/30 09:16:14;;;;;;;52.93;30.70;;;;;;;;;;5008460;28;20581;-72
2022/11/30 09:18:43;;;;;;;59.43;34.00;;;;;;;;;;4987995;28;20513;-71
2022/11/30 09:21:09;;;;;;;55.53;32.07;;;;;;;;;;5010412;28;20482;-71
2022/11/30 09:23:35;;;;;;;57.60;32.63;;;;;;;;;;5012404;28;20450;-71
2022/11/30 09:26:01;;;;;;;51.53;31.10;;;;;;;;;;5016096;28;20869;-71
2022/11/30 09:28:29;;;;;;;49.60;30.80;;;;;;;;;;5013517;28;20238;-71
2022/11/30 09:30:59;;;;;;;57.23;33.40;;;;;;;;;;5019736;28;20938;-71
2022/11/30 09:33:27;;;;;;;55.03;31.50;;;;;;;;;;5017952;28;20977;-72
2022/11/30 09:35:54;;;;;;;51.70;31.40;;;;;;;;;;5015853;28;20427;-71
2022/11/30 09:38:19;;;;;;;52.60;30.90;;;;;;;;;;5017163;28;20800;-72
2022/11/30 09:40:45;;;;;;;55.63;31.93;;;;;;;;;;5019229;28;20431;-71
2022/11/30 09:43:28;;;;;;;54.97;32.63;;;;;;;;;;5012868;28;20538;-71
2022/11/30 09:45:56;;;;;;;53.70;32.07;;;;;;;;;;5009967;28;20215;-71
2022/11/30 09:48:44;;;;;;;52.73;31.80;;;;;;;;;;5008997;28;20493;-71
2022/11/30 09:51:13;;;;;;;53.10;31.70;;;;;;;;;;5015407;28;20509;-71
2022/11/30 09:53:41;;;;;;;64.37;32.63;;;;;;;;;;5017945;28;21026;-71
2022/11/30 09:56:17;;;;;;;55.30;30.97;;;;;;;;;;4994096;28;20439;-71
2022/11/30 09:58:45;;;;;;;53.60;31.77;;;;;;;;;;5015320;28;20516;-71
2022/11/30 10:01:14;;;;;;;61.97;33.50;;;;;;;;;;5010020;28;20439;-71
2022/11/30 10:03:42;;;;;;;59.03;33.40;;;;;;;;;;5019786;28;20458;-71
2022/11/30 10:06:10;;;;;;;57.37;31.90;;;;;;;;;;5019577;28;20450;-71
2022/11/30 10:08:41;;;;;;;56.30;32.30;;;;;;;;;;5014173;28;20501;-72
2022/11/30 10:11:25;;;;;;;60.50;33.33;;;;;;;;;;4999540;28;20453;-70
2022/11/30 10:14:02;;;;;;;54.57;31.70;;;;;;;;;;5014269;28;20516;-70
2022/11/30 10:16:50;;;;;;;58.60;34.33;;;;;;;;;;5020040;28;20434;-71
2022/11/30 10:19:25;;;;;;;65.20;35.23;;;;;;;;;;5017952;28;20458;-71
2022/11/30 10:22:03;;;;;;;56.13;34.20;;;;;;;;;;5021790;28;20786;-71
2022/11/30 10:24:32;;;;;;;58.17;34.13;;;;;;;;;;5013298;28;20438;-72
2022/11/30 10:27:02;;;;;;;55.33;33.90;;;;;;;;;;5021851;28;20435;-71
2022/11/30 10:29:34;;;;;;;62.43;36.67;;;;;;;;;;5023324;28;20992;-71
2022/11/30 10:32:01;;;;;;;61.30;36.13;;;;;;;;;;5003111;28;20438;-71
2022/11/30 10:34:34;;;;;;;58.27;34.40;;;;;;;;;;5019327;28;20470;-71
2022/11/30 10:37:02;;;;;;;62.13;35.93;;;;;;;;;;5008258;28;20992;-72
2022/11/30 10:39:37;;;;;;;58.10;34.57;;;;;;;;;;5000092;28;20483;-71
2022/11/30 10:42:05;;;;;;;60.20;35.30;;;;;;;;;;5019704;28;20434;-72
2022/11/30 10:44:33;;;;;;;59.00;34.00;;;;;;;;;;5020961;28;20530;-73
2022/11/30 10:47:01;;;;;;;58.03;33.70;;;;;;;;;;4989562;28;20527;-72
2022/11/30 10:49:28;;;;;;;58.17;33.87;;;;;;;;;;5016302;28;20467;-71
2022/11/30 10:51:57;;;;;;;56.70;34.67;;;;;;;;;;5002725;28;20483;-72
2022/11/30 10:54:22;;;;;;;56.93;33.60;;;;;;;;;;5012186;28;20467;-71
2022/11/30 10:56:48;;;;;;;57.60;33.00;;;;;;;;;;5019346;28;20435;-71
2022/11/30 10:59:42;;;;;;;62.73;36.27;;;;;;;;;;5006263;28;20196;-72
2022/11/30 11:02:26;;;;;;;60.63;34.00;;;;;;;;;;4998930;28;20303;-71
2022/11/30 11:05:06;;;;;;;51.77;31.83;;;;;;;;;;5020776;28;20446;-69
2022/11/30 11:07:31;;;;;;;63.60;32.70;;;;;;;;;;5003174;28;20442;-70
2022/11/30 11:10:00;;;;;;;61.00;34.30;;;;;;;;;;5005598;28;20436;-69
2022/11/30 11:12:27;;;;;;;57.30;33.60;;;;;;;;;;5021831;28;20187;-69
2022/11/30 11:15:11;;;;;;;59.03;34.13;;;;;;;;;;5021569;28;20537;-68
2022/11/30 11:17:36;;;;;;;63.10;35.60;;;;;;;;;;5007547;28;20430;-68
2022/11/30 11:20:02;;;;;;;57.33;31.73;;;;;;;;;;5023377;28;20434;-69
2022/11/30 11:22:29;;;;;;;55.70;33.60;;;;;;;;;;5022000;28;20279;-69
2022/11/30 11:25:08;;;;;;;57.10;34.40;;;;;;;;;;5020893;28;20272;-70
2022/11/30 11:27:34;;;;;;;62.10;35.00;;;;;;;;;;5007446;28;20412;-70
2022/11/30 11:30:16;;;;;;;61.77;34.00;;;;;;;;;;5020209;28;20459;-69
2022/11/30 11:32:56;;;;;;;63.20;32.03;;;;;;;;;;5021713;28;20630;-70
2022/11/30 11:35:33;;;;;;;61.03;34.03;;;;;;;;;;5020411;28;20790;-69
2022/11/30 11:37:59;;;;;;;53.47;32.27;;;;;;;;;;5020957;28;20498;-70
2022/11/30 11:40:24;;;;;;;63.20;34.37;;;;;;;;;;5020049;28;20502;-70
2022/11/30 11:42:51;;;;;;;55.00;32.70;;;;;;;;;;5020257;28;20185;-70
2022/11/30 11:45:27;;;;;;;53.80;31.60;;;;;;;;;;5022092;28;20647;-70
2022/11/30 11:48:00;;;;;;;55.63;32.90;;;;;;;;;;5021141;28;20504;-70
2022/11/30 11:50:32;;;;;;;58.77;33.30;;;;;;;;;;5021426;28;20432;-70
2022/11/30 11:53:09;;;;;;;59.33;34.10;;;;;;;;;;5021131;28;20475;-70
2022/11/30 11:55:35;;;;;;;59.60;33.47;;;;;;;;;;5004444;28;20431;-70
2022/11/30 11:58:02;;;;;;;57.47;32.47;;;;;;;;;;5019411;28;20411;-70
2022/11/30 12:00:27;;;;;;;58.00;32.80;;;;;;;;;;5021275;28;20731;-70
2022/11/30 12:02:57;;;;;;;57.33;34.70;;;;;;;;;;5020409;28;20495;-70
2022/11/30 12:05:26;;;;;;;52.73;32.97;;;;;;;;;;5021591;28;20195;-70
2022/11/30 12:08:05;;;;;;;55.87;34.03;;;;;;;;;;5020205;28;20514;-70
2022/11/30 12:10:34;;;;;;;56.87;33.60;;;;;;;;;;5003153;28;20949;-70
2022/11/30 12:12:59;;;;;;;55.47;32.77;;;;;;;;;;5016553;28;20558;-70
2022/11/30 12:15:31;;;;;;;56.70;33.17;;;;;;;;;;5021385;28;20499;-70
2022/11/30 12:17:59;;;;;;;54.30;33.47;;;;;;;;;;5019381;28;20189;-70
2022/11/30 12:20:30;;;;;;;53.80;32.30;;;;;;;;;;5020398;28;20423;-70
2022/11/30 12:22:58;;;;;;;53.80;30.17;;;;;;;;;;5005258;28;20427;-70
2022/11/30 12:25:25;;;;;;;49.23;31.07;;;;;;;;;;5019488;28;20447;-70
2022/11/30 12:28:23;;;;;;;57.13;33.67;;;;;;;;;;5018210;28;20423;-70
2022/11/30 12:30:57;;;;;;;56.43;34.47;;;;;;;;;;4980167;28;20435;-70
2022/11/30 12:33:31;;;;;;;49.50;31.40;;;;;;;;;;5019642;28;20474;-71
2022/11/30 12:36:15;;;;;;;50.10;31.40;;;;;;;;;;5020117;28;20422;-71
2022/11/30 12:38:43;;;;;;;46.43;30.37;;;;;;;;;;5017892;28;20444;-70
2022/11/30 12:41:27;;;;;;;54.40;31.70;;;;;;;;;;5004679;28;20416;-70
2022/11/30 12:44:31;;;;;;;50.90;31.50;;;;;;;;;;5019531;28;20510;-70
2022/11/30 12:46:56;;;;;;;54.80;30.43;;;;;;;;;;4947888;28;20424;-71
2022/11/30 12:49:22;;;;;;;42.53;28.27;;;;;;;;;;4946461;29;20900;-70
2022/11/30 12:51:59;;;;;;;49.47;30.30;;;;;;;;;;4978128;28;20196;-70
2022/11/30 12:54:31;;;;;;;47.33;29.10;;;;;;;;;;5005528;28;20215;-70
2022/11/30 12:57:09;;;;;;;44.90;28.43;;;;;;;;;;5017579;28;20466;-70
2022/11/30 12:59:41;;;;;;;43.20;29.27;;;;;;;;;;5018348;28;20842;-70
2022/11/30 13:02:16;;;;;;;41.63;28.57;;;;;;;;;;5019469;28;20432;-70
2022/11/30 13:04:44;;;;;;;41.83;28.63;;;;;;;;;;5017389;28;20427;-70
2022/11/30 13:07:24;;;;;;;40.00;28.97;;;;;;;;;;5005611;28;20428;-73
2022/11/30 13:09:52;;;;;;;45.97;28.23;;;;;;;;;;5001045;28;20435;-72
2022/11/30 13:12:23;;;;;;;43.57;27.67;;;;;;;;;;5015261;28;20415;-70
2022/11/30 13:14:51;;;;;;;42.30;28.63;;;;;;;;;;5016535;28;20411;-71
2022/11/30 13:17:18;;;;;;;41.93;28.80;;;;;;;;;;5019608;28;20941;-71
2022/11/30 13:19:50;;;;;;;44.47;29.70;;;;;;;;;;4991976;28;20467;-73
2022/11/30 13:22:25;;;;;;;39.70;27.20;;;;;;;;;;4997237;28;20431;-70
2022/11/30 13:25:00;;;;;;;36.33;25.27;;;;;;;;;;5014417;28;20457;-70
2022/11/30 13:27:25;;;;;;;43.87;29.53;;;;;;;;;;4994156;28;20431;-71
2022/11/30 13:29:56;;;;;;;38.33;26.60;;;;;;;;;;5016953;28;20937;-70
2022/11/30 13:32:21;;;;;;;42.50;26.00;;;;;;;;;;5014524;28;20259;-70
2022/11/30 13:34:46;;;;;;;38.63;27.30;;;;;;;;;;5017439;28;20589;-70
2022/11/30 13:37:21;;;;;;;37.10;26.37;;;;;;;;;;5015977;28;20184;-70
2022/11/30 13:39:58;;;;;;;36.30;25.67;;;;;;;;;;5014685;28;20188;-71
2022/11/30 13:42:29;;;;;;;37.50;25.77;;;;;;;;;;5015141;28;20428;-70
2022/11/30 13:44:54;;;;;;;33.70;24.03;;;;;;;;;;5010367;28;20426;-70
2022/11/30 13:47:30;;;;;;;36.93;24.93;;;;;;;;;;5018522;28;21104;-71
2022/11/30 13:49:58;;;;;;;42.00;27.07;;;;;;;;;;4999196;28;20291;-71
2022/11/30 13:52:42;;;;;;;38.53;26.80;;;;;;;;;;4996906;28;20446;-70
2022/11/30 13:55:39;;;;;;;37.00;26.70;;;;;;;;;;5019044;28;20423;-70
2022/11/30 13:58:06;;;;;;;38.87;28.20;;;;;;;;;;5021861;28;20430;-71
2022/11/30 14:00:31;;;;;;;33.33;24.20;;;;;;;;;;5021638;28;20497;-72
2022/11/30 14:03:15;;;;;;;35.10;26.30;;;;;;;;;;5016736;28;20851;-72
2022/11/30 14:05:43;;;;;;;34.77;25.77;;;;;;;;;;5013386;28;21364;-73
2022/11/30 14:08:10;;;;;;;33.33;25.33;;;;;;;;;;5020619;28;20428;-72
2022/11/30 14:10:37;;;;;;;35.47;25.30;;;;;;;;;;5022937;28;20442;-73
2022/11/30 14:13:08;;;;;;;37.23;26.67;;;;;;;;;;5008693;28;20450;-70
2022/11/30 14:15:41;;;;;;;43.00;27.20;;;;;;;;;;5022777;28;20407;-70
2022/11/30 14:18:06;;;;;;;37.97;26.67;;;;;;;;;;5015997;28;20427;-71
2022/11/30 14:20:33;;;;;;;40.27;27.40;;;;;;;;;;5020485;28;20457;-71
2022/11/30 14:23:03;;;;;;;38.00;27.70;;;;;;;;;;5018425;28;20185;-72